Airfield :
LOGIN :

Register | Disclaimer

   EN    FR    IT 

 










Legend :    VFR   Marginal VFR   IFR   Intensive IFR   Very Intensive IFR
Visi :
Ceiling :
>= 8 km
>= 3000ft
5 to 8 km
1000 to 3000 ft
1500m to 5 km
500 to 1000 ft
800 to 1500m
200 to 500 ft
< 800m
< 200 ft
Symbols :   Thunderstorms  Fog  Heavy snow  Heavy precipitations  Wind > 20 kt
SIGMETs :     Misc.  Thunderstorms  Icing  Turbulence  Mountain Waves  Volcanic Ashes







- Airport Elevation : 2001 ft
- IATA code : MAD


LEMD - Madrid

CURRENT METAR :
  • 260900Z 34004KT 250V050 CAVOK 16/04 Q1020 NOSIG

EXPIRED METARs :
  • 260830Z 03003KT CAVOK 16/04 Q1020 NOSIG
  • 260800Z 04004KT 340V150 CAVOK 15/04 Q1020 NOSIG
  • 260730Z 05004KT 350V130 CAVOK 14/05 Q1020 NOSIG
  • 260700Z 05003KT 340V110 CAVOK 13/05 Q1021 NOSIG
  • 260630Z 36003KT 320V030 CAVOK 12/05 Q1021 NOSIG

TAF TAF LEMD
Valid from the 26 at 06:00 until the 27 at 12:00 UTC


260500Z 2606/2712 VRB04KT CAVOK TX27/2615Z TN11/2705Z
BECMG 2607/2609 04010KT
BECMG 2613/2615 34011KT
PROB30
TEMPO 2615/2620 34013G23KT
BECMG 2621/2623 VRB04KT
No reported NOTAMs for that airfield.



MET'MAP, your aeronautical weather chart ! - Copyright ORBIFLY December 2007 - Disclaimer

ORBIFLY MET'MAP TEAM :

Programming & Development : Alexandra Zaïnal
Concept & Development : Baudouin d'Aumeries
Co-Development & Prog : Marc-Olivier Méhu
Technical & hardware support : Manuel Goepfert

Contact : metmap@orbifly.com




SOURCES & CREDITS :

   NOAA